Saffet Bey — TCUZ — position and weather

sailwx.info

Track history (hours):
 
Tides and Currents Weather Stations Pressure Air Temp Water Temp Dewpoint Dewpoint Depression Visibility Wind Speed Wind Dir Waves Ship Positions

Saffet Bey

Last reported at 2016-May-23 05:33 UTC. Time now 2016-May-25 01:23 UTC.
Position N 37°17' E 024°52'.

Length 164 m; draft 6.5 m.

Type: Cargo ship. MMSI: 271000419.

Date/timePositionNaut miles runAvg speedWind from/ knotsBaromVisibWave heightAir tempDewpointWater temp
2016-May-23 05:33N 37°17' E 024°52'1514.5
2016-May-23 04:33N 37°26' E 025°07'1514.9
2016-May-23 03:33N 37°36' E 025°21'1414.2
2016-May-23 02:33N 37°46' E 025°34'1 0.1
2016-May-22 12:10N 37°45' E 025°34'813.0
2016-May-22 11:33N 37°39' E 025°27'1313.4
2016-May-22 10:33N 37°30' E 025°15'1413.5
2016-May-22 09:33N 37°22' E 025°01'1313.1
2016-May-22 08:33N 37°14' E 024°48'  
2016-May-20 00:22N 45°03' E 013°11'1114.2
2016-May-19 23:33N 45°14' E 013°05'38 1.4
2016-May-18 20:04N 45°38' E 013°46'0 0.0
2016-May-18 19:33N 45°38' E 013°46'4 4.4
2016-May-18 18:33N 45°38' E 013°39'1514.6
2016-May-18 17:33N 45°30' E 013°22'1413.8
2016-May-18 16:33N 45°17' E 013°16'1515.2
2016-May-18 15:33N 45°02' E 013°22'1715.0
2016-May-18 14:26N 44°47' E 013°34'67113.2
2016-May-16 11:32N 36°38' E 023°38'7014.1
2016-May-16 06:33N 37°17' E 024°51'1414.1
2016-May-16 05:33N 37°25' E 025°05'1614.3
2016-May-16 04:24N 37°36' E 025°21'1214.7
2016-May-16 03:33N 37°45' E 025°32'3 0.2
2016-May-15 11:33N 37°47' E 025°36'2014.7
2016-May-15 10:14N 37°33' E 025°18'1014.8
2016-May-15 09:33N 37°27' E 025°08'1514.8
2016-May-15 08:33N 37°18' E 024°54'4814.7
2016-May-15 05:17N 36°50' E 024°05'2514.3
2016-May-15 03:31N 36°37' E 023°38'1414.3
2016-May-15 02:33N 36°29' E 023°24'17213.2
2016-May-14 13:33N 38°03' E 020°24'  
Track history (hours):
 
Tides and Currents Weather Stations Pressure Air Temp Water Temp Dewpoint Dewpoint Depression Visibility Wind Speed Wind Dir Waves Ship Positions

Saffet Bey

Last reported at 2016-May-23 05:33 UTC. Time now 2016-May-25 01:23 UTC.
Position N 37°17' E 024°52'.

Length 164 m; draft 6.5 m.

Type: Cargo ship. MMSI: 271000419.

Date/timePositionNaut miles runAvg speedWind from/ knotsBaromVisibWave heightAir tempDewpointWater temp
2016-May-23 05:33N 37°17' E 024°52'1514.5
2016-May-23 04:33N 37°26' E 025°07'1514.9
2016-May-23 03:33N 37°36' E 025°21'1414.2
2016-May-23 02:33N 37°46' E 025°34'1 0.1
2016-May-22 12:10N 37°45' E 025°34'813.0
2016-May-22 11:33N 37°39' E 025°27'1313.4
2016-May-22 10:33N 37°30' E 025°15'1413.5
2016-May-22 09:33N 37°22' E 025°01'1313.1
2016-May-22 08:33N 37°14' E 024°48'  
2016-May-20 00:22N 45°03' E 013°11'1114.2
2016-May-19 23:33N 45°14' E 013°05'38 1.4
2016-May-18 20:04N 45°38' E 013°46'0 0.0
2016-May-18 19:33N 45°38' E 013°46'4 4.4
2016-May-18 18:33N 45°38' E 013°39'1514.6
2016-May-18 17:33N 45°30' E 013°22'1413.8
2016-May-18 16:33N 45°17' E 013°16'1515.2
2016-May-18 15:33N 45°02' E 013°22'1715.0
2016-May-18 14:26N 44°47' E 013°34'67113.2
2016-May-16 11:32N 36°38' E 023°38'7014.1
2016-May-16 06:33N 37°17' E 024°51'1414.1
2016-May-16 05:33N 37°25' E 025°05'1614.3
2016-May-16 04:24N 37°36' E 025°21'1214.7
2016-May-16 03:33N 37°45' E 025°32'3 0.2
2016-May-15 11:33N 37°47' E 025°36'2014.7
2016-May-15 10:14N 37°33' E 025°18'1014.8
2016-May-15 09:33N 37°27' E 025°08'1514.8
2016-May-15 08:33N 37°18' E 024°54'4814.7
2016-May-15 05:17N 36°50' E 024°05'2514.3
2016-May-15 03:31N 36°37' E 023°38'1414.3
2016-May-15 02:33N 36°29' E 023°24'17213.2
2016-May-14 13:33N 38°03' E 020°24'  

Dump ship's entire track history